sensor_id;sensor_type;location;lat;lon;timestamp;pressure;altitude;pressure_sealevel;temperature;humidity
13612;BME280;6877;51.436;6.774;2023-03-04T00:01:07;102117.31;;;4.14;77.31
13612;BME280;6877;51.436;6.774;2023-03-04T00:03:39;102113.97;;;4.18;77.39
13612;BME280;6877;51.436;6.774;2023-03-04T00:06:05;102112.41;;;4.23;77.17
13612;BME280;6877;51.436;6.774;2023-03-04T00:08:37;102119.25;;;4.21;76.95
13612;BME280;6877;51.436;6.774;2023-03-04T00:11:03;102114.13;;;4.23;77.37
13612;BME280;6877;51.436;6.774;2023-03-04T00:13:35;102113.22;;;4.22;77.41
13612;BME280;6877;51.436;6.774;2023-03-04T00:16:06;102114.06;;;4.21;77.42
13612;BME280;6877;51.436;6.774;2023-03-04T00:18:33;102116.66;;;4.21;77.39
13612;BME280;6877;51.436;6.774;2023-03-04T00:20:59;102107.91;;;4.17;77.35
13612;BME280;6877;51.436;6.774;2023-03-04T00:23:26;102112.22;;;4.17;77.64
13612;BME280;6877;51.436;6.774;2023-03-04T00:25:57;102106.94;;;4.14;77.97
13612;BME280;6877;51.436;6.774;2023-03-04T00:28:28;102109.47;;;4.12;77.92
13612;BME280;6877;51.436;6.774;2023-03-04T00:30:55;102108.59;;;4.12;78.13
13612;BME280;6877;51.436;6.774;2023-03-04T00:33:26;102108.50;;;4.09;78.29
13612;BME280;6877;51.436;6.774;2023-03-04T00:35:53;102117.22;;;4.11;78.19
13612;BME280;6877;51.436;6.774;2023-03-04T00:38:24;102111.09;;;4.09;78.23
13612;BME280;6877;51.436;6.774;2023-03-04T00:40:56;102111.09;;;4.09;78.33
13612;BME280;6877;51.436;6.774;2023-03-04T00:43:27;102106.84;;;4.11;78.40
13612;BME280;6877;51.436;6.774;2023-03-04T00:45:55;102099.94;;;4.10;78.37
13612;BME280;6877;51.436;6.774;2023-03-04T00:48:21;102105.16;;;4.13;78.05
13612;BME280;6877;51.436;6.774;2023-03-04T00:50:48;102098.25;;;4.12;78.27
13612;BME280;6877;51.436;6.774;2023-03-04T00:53:16;102100.00;;;4.13;78.25
13612;BME280;6877;51.436;6.774;2023-03-04T00:55:48;102100.84;;;4.12;78.13
13612;BME280;6877;51.436;6.774;2023-03-04T00:58:20;102098.25;;;4.12;78.24
13612;BME280;6877;51.436;6.774;2023-03-04T01:00:46;102097.47;;;4.14;78.22
13612;BME280;6877;51.436;6.774;2023-03-04T01:03:13;102100.06;;;4.14;78.43
13612;BME280;6877;51.436;6.774;2023-03-04T01:05:39;102091.50;;;4.17;78.50
13612;BME280;6877;51.436;6.774;2023-03-04T01:08:05;102090.66;;;4.18;78.32
13612;BME280;6877;51.436;6.774;2023-03-04T01:10:32;102089.81;;;4.19;77.65
13612;BME280;6877;51.436;6.774;2023-03-04T01:12:58;102085.72;;;4.26;76.68
13612;BME280;6877;51.436;6.774;2023-03-04T01:15:30;102094.38;;;4.28;76.64
13612;BME280;6877;51.436;6.774;2023-03-04T01:17:56;102090.13;;;4.30;77.14
13612;BME280;6877;51.436;6.774;2023-03-04T01:20:27;102085.72;;;4.26;77.22
13612;BME280;6877;51.436;6.774;2023-03-04T01:22:54;102093.41;;;4.24;77.29
13612;BME280;6877;51.436;6.774;2023-03-04T01:25:20;102089.91;;;4.22;77.35
13612;BME280;6877;51.436;6.774;2023-03-04T01:27:46;102085.63;;;4.23;77.36
13612;BME280;6877;51.436;6.774;2023-03-04T01:30:18;102082.97;;;4.21;77.38
13612;BME280;6877;51.436;6.774;2023-03-04T01:32:49;102088.16;;;4.21;77.29
13612;BME280;6877;51.436;6.774;2023-03-04T01:35:21;102080.34;;;4.20;77.06
13612;BME280;6877;51.436;6.774;2023-03-04T01:37:47;102078.56;;;4.18;77.23
13612;BME280;6877;51.436;6.774;2023-03-04T01:40:19;102082.94;;;4.20;77.17
13612;BME280;6877;51.436;6.774;2023-03-04T01:42:45;102078.72;;;4.23;76.96
13612;BME280;6877;51.436;6.774;2023-03-04T01:45:18;102073.53;;;4.23;77.14
13612;BME280;6877;51.436;6.774;2023-03-04T01:47:46;102072.66;;;4.23;77.29
13612;BME280;6877;51.436;6.774;2023-03-04T01:50:33;102072.59;;;4.21;77.33
13612;BME280;6877;51.436;6.774;2023-03-04T01:53:01;102076.06;;;4.22;77.71
13612;BME280;6877;51.436;6.774;2023-03-04T01:55:29;102077.00;;;4.24;78.08
13612;BME280;6877;51.436;6.774;2023-03-04T01:57:56;102074.34;;;4.22;78.21
13612;BME280;6877;51.436;6.774;2023-03-04T02:00:32;102064.88;;;4.23;77.43
13612;BME280;6877;51.436;6.774;2023-03-04T02:03:06;102070.94;;;4.23;77.55
13612;BME280;6877;51.436;6.774;2023-03-04T02:05:36;102071.03;;;4.26;77.22
13612;BME280;6877;51.436;6.774;2023-03-04T02:08:09;102064.13;;;4.27;76.99
13612;BME280;6877;51.436;6.774;2023-03-04T02:10:42;102063.28;;;4.28;76.65
13612;BME280;6877;51.436;6.774;2023-03-04T02:13:09;102055.41;;;4.23;77.33
13612;BME280;6877;51.436;6.774;2023-03-04T02:15:36;102062.25;;;4.21;77.39
13612;BME280;6877;51.436;6.774;2023-03-04T02:18:17;102063.09;;;4.20;77.38
13612;BME280;6877;51.436;6.774;2023-03-04T02:20:51;102066.47;;;4.19;77.67
13612;BME280;6877;51.436;6.774;2023-03-04T02:26:30;102061.28;;;4.17;78.23
13612;BME280;6877;51.436;6.774;2023-03-04T02:28:58;102056.03;;;4.16;78.36
13612;BME280;6877;51.436;6.774;2023-03-04T02:31:33;102048.31;;;4.17;78.12
13612;BME280;6877;51.436;6.774;2023-03-04T02:34:17;102052.72;;;4.20;77.82
13612;BME280;6877;51.436;6.774;2023-03-04T02:36:46;102045.81;;;4.21;77.78
13612;BME280;6877;51.436;6.774;2023-03-04T02:39:27;102044.84;;;4.17;77.83
13612;BME280;6877;51.436;6.774;2023-03-04T02:41:54;102046.59;;;4.18;78.04
13612;BME280;6877;51.436;6.774;2023-03-04T02:44:29;102038.81;;;4.16;78.04
13612;BME280;6877;51.436;6.774;2023-03-04T02:46:56;102043.06;;;4.16;78.28
13612;BME280;6877;51.436;6.774;2023-03-04T02:49:30;102043.00;;;4.13;78.54
13612;BME280;6877;51.436;6.774;2023-03-04T02:54:31;102033.38;;;4.09;78.79
13612;BME280;6877;51.436;6.774;2023-03-04T02:57:00;102033.34;;;4.07;78.55
13612;BME280;6877;51.436;6.774;2023-03-04T02:59:26;102038.63;;;4.10;78.16
13612;BME280;6877;51.436;6.774;2023-03-04T03:01:58;102035.97;;;4.09;77.79
13612;BME280;6877;51.436;6.774;2023-03-04T03:04:25;102031.63;;;4.08;77.25
13612;BME280;6877;51.436;6.774;2023-03-04T03:06:52;102022.94;;;4.06;77.59
13612;BME280;6877;51.436;6.774;2023-03-04T03:09:23;102027.31;;;4.07;77.40
13612;BME280;6877;51.436;6.774;2023-03-04T03:11:54;102024.66;;;4.05;77.47
13612;BME280;6877;51.436;6.774;2023-03-04T03:14:21;102023.78;;;4.05;77.31
13612;BME280;6877;51.436;6.774;2023-03-04T03:16:47;102023.72;;;4.03;77.39
13612;BME280;6877;51.436;6.774;2023-03-04T03:19:14;102022.03;;;4.04;77.72
13612;BME280;6877;51.436;6.774;2023-03-04T03:21:40;102021.13;;;4.03;77.97
13612;BME280;6877;51.436;6.774;2023-03-04T03:24:11;102016.84;;;4.04;77.68
13612;BME280;6877;51.436;6.774;2023-03-04T03:26:38;102018.53;;;4.03;77.48
13612;BME280;6877;51.436;6.774;2023-03-04T03:29:10;102003.91;;;4.04;77.43
13612;BME280;6877;51.436;6.774;2023-03-04T03:31:36;102006.50;;;4.04;77.35
13612;BME280;6877;51.436;6.774;2023-03-04T03:34:07;102008.25;;;4.05;77.58
13612;BME280;6877;51.436;6.774;2023-03-04T03:36:34;102008.25;;;4.05;77.84
13612;BME280;6877;51.436;6.774;2023-03-04T03:39:00;102003.06;;;4.05;77.61
13612;BME280;6877;51.436;6.774;2023-03-04T03:41:31;102009.94;;;4.04;77.68
13612;BME280;6877;51.436;6.774;2023-03-04T03:44:03;101999.72;;;4.09;77.35
13612;BME280;6877;51.436;6.774;2023-03-04T03:46:29;102004.00;;;4.08;77.40
13612;BME280;6877;51.436;6.774;2023-03-04T03:48:56;102004.00;;;4.08;77.58
13612;BME280;6877;51.436;6.774;2023-03-04T03:51:27;102007.47;;;4.09;77.92
13612;BME280;6877;51.436;6.774;2023-03-04T03:53:53;101999.78;;;4.12;78.49
13612;BME280;6877;51.436;6.774;2023-03-04T03:56:20;102006.72;;;4.13;78.70
13612;BME280;6877;51.436;6.774;2023-03-04T03:58:51;102009.31;;;4.13;78.63
13612;BME280;6877;51.436;6.774;2023-03-04T04:01:18;102007.56;;;4.12;79.07
13612;BME280;6877;51.436;6.774;2023-03-04T04:03:44;102000.63;;;4.11;79.05
13612;BME280;6877;51.436;6.774;2023-03-04T04:06:10;102007.56;;;4.12;79.49
13612;BME280;6877;51.436;6.774;2023-03-04T04:08:37;102001.47;;;4.10;79.46
13612;BME280;6877;51.436;6.774;2023-03-04T04:11:03;102000.56;;;4.09;79.53
13612;BME280;6877;51.436;6.774;2023-03-04T04:13:30;102004.88;;;4.09;78.97
13612;BME280;6877;51.436;6.774;2023-03-04T04:16:01;102006.66;;;4.10;79.09
13612;BME280;6877;51.436;6.774;2023-03-04T04:18:28;102003.16;;;4.08;78.92
13612;BME280;6877;51.436;6.774;2023-03-04T04:20:54;102000.47;;;4.05;79.18
13612;BME280;6877;51.436;6.774;2023-03-04T04:23:21;101998.75;;;4.05;79.39
13612;BME280;6877;51.436;6.774;2023-03-04T04:25:47;101998.72;;;4.04;79.27
13612;BME280;6877;51.436;6.774;2023-03-04T04:28:14;101997.78;;;4.02;79.76
13612;BME280;6877;51.436;6.774;2023-03-04T04:30:45;102000.47;;;4.05;79.78
13612;BME280;6877;51.436;6.774;2023-03-04T04:33:11;101992.69;;;4.05;79.54
13612;BME280;6877;51.436;6.774;2023-03-04T04:35:43;101996.22;;;4.07;79.44
13612;BME280;6877;51.436;6.774;2023-03-04T04:38:14;101999.63;;;4.06;79.52
13612;BME280;6877;51.436;6.774;2023-03-04T04:40:41;102002.28;;;4.07;79.93
13612;BME280;6877;51.436;6.774;2023-03-04T04:43:13;101997.97;;;4.08;79.62
13612;BME280;6877;51.436;6.774;2023-03-04T04:45:44;102003.16;;;4.09;79.32
13612;BME280;6877;51.436;6.774;2023-03-04T04:48:16;102003.22;;;4.11;79.01
13612;BME280;6877;51.436;6.774;2023-03-04T04:50:42;102004.88;;;4.07;79.01
13612;BME280;6877;51.436;6.774;2023-03-04T04:53:11;102009.97;;;4.06;79.35
13612;BME280;6877;51.436;6.774;2023-03-04T04:55:39;102009.97;;;4.06;79.29
13612;BME280;6877;51.436;6.774;2023-03-04T04:58:06;102009.97;;;4.06;79.56
13612;BME280;6877;51.436;6.774;2023-03-04T05:00:32;102015.16;;;4.06;80.40
13612;BME280;6877;51.436;6.774;2023-03-04T05:02:59;102015.25;;;4.09;80.71
13612;BME280;6877;51.436;6.774;2023-03-04T05:05:30;102012.63;;;4.07;80.86
13612;BME280;6877;51.436;6.774;2023-03-04T05:07:57;102010.91;;;4.08;80.69
13612;BME280;6877;51.436;6.774;2023-03-04T05:10:28;102016.94;;;4.07;80.62
13612;BME280;6877;51.436;6.774;2023-03-04T05:12:54;102011.66;;;4.04;81.04
13612;BME280;6877;51.436;6.774;2023-03-04T05:15:21;102019.44;;;4.04;81.03
13612;BME280;6877;51.436;6.774;2023-03-04T05:17:47;102020.25;;;4.03;80.76
13612;BME280;6877;51.436;6.774;2023-03-04T05:20:18;102022.03;;;4.04;80.76
13612;BME280;6877;51.436;6.774;2023-03-04T05:22:45;102011.63;;;4.02;80.75
13612;BME280;6877;51.436;6.774;2023-03-04T05:25:11;102019.34;;;4.01;80.59
13612;BME280;6877;51.436;6.774;2023-03-04T05:27:37;102011.63;;;4.02;80.75
13612;BME280;6877;51.436;6.774;2023-03-04T05:30:04;102013.31;;;4.02;80.68
13612;BME280;6877;51.436;6.774;2023-03-04T05:32:36;102008.09;;;4.00;80.31
13612;BME280;6877;51.436;6.774;2023-03-04T05:35:08;102009.81;;;4.00;80.29
13612;BME280;6877;51.436;6.774;2023-03-04T05:37:34;102015.84;;;4.00;80.37
13612;BME280;6877;51.436;6.774;2023-03-04T05:40:06;102006.41;;;4.01;80.36
13612;BME280;6877;51.436;6.774;2023-03-04T05:42:33;102007.22;;;4.00;80.50
13612;BME280;6877;51.436;6.774;2023-03-04T05:44:59;102010.69;;;4.00;80.62
13612;BME280;6877;51.436;6.774;2023-03-04T05:47:30;102008.09;;;4.00;80.71
13612;BME280;6877;51.436;6.774;2023-03-04T05:50:02;102013.25;;;3.99;80.67
13612;BME280;6877;51.436;6.774;2023-03-04T05:52:28;102000.28;;;3.99;80.65
13612;BME280;6877;51.436;6.774;2023-03-04T05:54:54;102005.50;;;4.00;80.78
13612;BME280;6877;51.436;6.774;2023-03-04T05:57:26;102015.84;;;4.00;80.36
13612;BME280;6877;51.436;6.774;2023-03-04T05:59:57;102017.72;;;4.04;80.52
13612;BME280;6877;51.436;6.774;2023-03-04T06:02:29;102016.09;;;4.08;80.19
13612;BME280;6877;51.436;6.774;2023-03-04T06:05:00;102019.63;;;4.10;79.68
13612;BME280;6877;51.436;6.774;2023-03-04T06:07:32;102011.84;;;4.10;79.31
13612;BME280;6877;51.436;6.774;2023-03-04T06:10:04;102008.41;;;4.11;79.05
13612;BME280;6877;51.436;6.774;2023-03-04T06:12:36;102022.22;;;4.10;79.12
13612;BME280;6877;51.436;6.774;2023-03-04T06:15:08;102018.78;;;4.11;78.79
13612;BME280;6877;51.436;6.774;2023-03-04T06:17:39;102020.53;;;4.12;78.65
13612;BME280;6877;51.436;6.774;2023-03-04T06:20:11;102022.25;;;4.13;78.92
13612;BME280;6877;51.436;6.774;2023-03-04T06:22:42;102034.50;;;4.17;78.77
13612;BME280;6877;51.436;6.774;2023-03-04T06:25:14;102022.34;;;4.16;78.67
13612;BME280;6877;51.436;6.774;2023-03-04T06:27:45;102026.72;;;4.17;78.71
13612;BME280;6877;51.436;6.774;2023-03-04T06:30:12;102030.13;;;4.16;79.05
13612;BME280;6877;51.436;6.774;2023-03-04T06:32:44;102031.84;;;4.15;79.59
13612;BME280;6877;51.436;6.774;2023-03-04T06:35:16;102030.13;;;4.16;79.73
13612;BME280;6877;51.436;6.774;2023-03-04T06:37:47;102038.81;;;4.16;80.41
13612;BME280;6877;51.436;6.774;2023-03-04T06:40:14;102041.34;;;4.15;80.51
13612;BME280;6877;51.436;6.774;2023-03-04T06:42:41;102032.63;;;4.13;80.98
13612;BME280;6877;51.436;6.774;2023-03-04T06:45:08;102037.81;;;4.13;81.01
13612;BME280;6877;51.436;6.774;2023-03-04T06:47:35;102045.63;;;4.14;80.79
13612;BME280;6877;51.436;6.774;2023-03-04T06:50:02;102052.56;;;4.15;80.89
13612;BME280;6877;51.436;6.774;2023-03-04T06:52:34;102045.66;;;4.16;80.83
13612;BME280;6877;51.436;6.774;2023-03-04T06:55:06;102044.94;;;4.20;80.82
13612;BME280;6877;51.436;6.774;2023-03-04T06:57:32;102044.16;;;4.23;80.88
13612;BME280;6877;51.436;6.774;2023-03-04T06:59:59;102061.31;;;4.19;82.61
13612;BME280;6877;51.436;6.774;2023-03-04T07:02:25;102049.94;;;4.14;82.58
13612;BME280;6877;51.436;6.774;2023-03-04T07:04:57;102047.28;;;4.11;83.42
13612;BME280;6877;51.436;6.774;2023-03-04T07:07:28;102055.13;;;4.14;83.36
13612;BME280;6877;51.436;6.774;2023-03-04T07:09:54;102054.25;;;4.13;84.12
13612;BME280;6877;51.436;6.774;2023-03-04T07:12:21;102056.78;;;4.12;84.46
13612;BME280;6877;51.436;6.774;2023-03-04T07:14:52;102055.13;;;4.14;84.33
13612;BME280;6877;51.436;6.774;2023-03-04T07:17:19;102056.94;;;4.16;84.49
13612;BME280;6877;51.436;6.774;2023-03-04T07:19:50;102056.19;;;4.21;84.44
13612;BME280;6877;51.436;6.774;2023-03-04T07:22:22;102062.38;;;4.26;85.13
13612;BME280;6877;51.436;6.774;2023-03-04T07:24:53;102071.03;;;4.26;85.60
13612;BME280;6877;51.436;6.774;2023-03-04T07:27:24;102065.78;;;4.25;86.59
13612;BME280;6877;51.436;6.774;2023-03-04T07:29:56;102069.25;;;4.25;86.48
13612;BME280;6877;51.436;6.774;2023-03-04T07:32:27;102061.56;;;4.28;86.87
13612;BME280;6877;51.436;6.774;2023-03-04T07:34:54;102069.44;;;4.31;86.70
13612;BME280;6877;51.436;6.774;2023-03-04T07:37:25;102069.50;;;4.34;87.12
13612;BME280;6877;51.436;6.774;2023-03-04T07:39:51;102069.50;;;4.33;86.79
13612;BME280;6877;51.436;6.774;2023-03-04T07:42:23;102077.25;;;4.33;87.35
13612;BME280;6877;51.436;6.774;2023-03-04T07:44:49;102067.78;;;4.33;87.08
13612;BME280;6877;51.436;6.774;2023-03-04T07:47:20;102065.22;;;4.35;87.52
13612;BME280;6877;51.436;6.774;2023-03-04T07:49:47;102056.91;;;4.47;87.42
13612;BME280;6877;51.436;6.774;2023-03-04T07:52:18;102066.13;;;4.69;87.21
13612;BME280;6877;51.436;6.774;2023-03-04T07:54:45;102065.22;;;5.00;86.00
13612;BME280;6877;51.436;6.774;2023-03-04T07:57:16;102071.81;;;5.20;85.52
13612;BME280;6877;51.436;6.774;2023-03-04T07:59:48;102071.91;;;5.26;84.74
13612;BME280;6877;51.436;6.774;2023-03-04T08:02:14;102069.31;;;5.26;85.03
13612;BME280;6877;51.436;6.774;2023-03-04T08:04:41;102077.09;;;5.25;84.65
13612;BME280;6877;51.436;6.774;2023-03-04T08:07:07;102076.06;;;5.18;85.12
13612;BME280;6877;51.436;6.774;2023-03-04T08:09:34;102074.19;;;5.13;85.98
13612;BME280;6877;51.436;6.774;2023-03-04T08:12:05;102078.44;;;5.09;86.61
13612;BME280;6877;51.436;6.774;2023-03-04T08:14:31;102076.94;;;5.19;86.43
13612;BME280;6877;51.436;6.774;2023-03-04T08:17:04;102079.53;;;5.19;86.42
13612;BME280;6877;51.436;6.774;2023-03-04T08:19:30;102074.78;;;5.37;86.65
13612;BME280;6877;51.436;6.774;2023-03-04T08:21:57;102077.63;;;5.48;85.66
13612;BME280;6877;51.436;6.774;2023-03-04T08:24:23;102071.78;;;5.55;85.14
13612;BME280;6877;51.436;6.774;2023-03-04T08:26:49;102071.66;;;5.50;84.59
13612;BME280;6877;51.436;6.774;2023-03-04T08:29:22;102082.91;;;5.51;84.74
13612;BME280;6877;51.436;6.774;2023-03-04T08:31:50;102079.28;;;5.44;84.61
13612;BME280;6877;51.436;6.774;2023-03-04T08:34:25;102077.34;;;5.35;84.87
13612;BME280;6877;51.436;6.774;2023-03-04T08:36:52;102086.84;;;5.35;84.91
13612;BME280;6877;51.436;6.774;2023-03-04T08:39:19;102075.75;;;5.41;84.68
13612;BME280;6877;51.436;6.774;2023-03-04T08:41:51;102081.00;;;5.44;84.09
13612;BME280;6877;51.436;6.774;2023-03-04T08:44:22;102086.19;;;5.44;85.04
13612;BME280;6877;51.436;6.774;2023-03-04T08:46:54;102079.19;;;5.40;86.95
13612;BME280;6877;51.436;6.774;2023-03-04T08:49:20;102073.69;;;5.27;89.50
13612;BME280;6877;51.436;6.774;2023-03-04T08:51:46;102086.38;;;5.15;91.11
13612;BME280;6877;51.436;6.774;2023-03-04T08:54:18;102079.28;;;5.08;90.96
13612;BME280;6877;51.436;6.774;2023-03-04T08:56:44;102078.75;;;5.23;92.22
13612;BME280;6877;51.436;6.774;2023-03-04T08:59:16;102078.25;;;5.38;91.11
13612;BME280;6877;51.436;6.774;2023-03-04T09:01:47;102076.84;;;5.50;90.90
13612;BME280;6877;51.436;6.774;2023-03-04T09:04:13;102070.50;;;5.75;90.01
13612;BME280;6877;51.436;6.774;2023-03-04T09:06:40;102069.63;;;5.76;88.98
13612;BME280;6877;51.436;6.774;2023-03-04T09:09:06;102077.13;;;5.63;89.70
13612;BME280;6877;51.436;6.774;2023-03-04T09:11:38;102076.75;;;5.47;90.15
13612;BME280;6877;51.436;6.774;2023-03-04T09:14:09;102082.81;;;5.48;90.34
13612;BME280;6877;51.436;6.774;2023-03-04T09:16:41;102077.03;;;5.58;90.92
13612;BME280;6877;51.436;6.774;2023-03-04T09:19:07;102070.41;;;5.72;90.51
13612;BME280;6877;51.436;6.774;2023-03-04T09:21:39;102074.28;;;5.91;89.03
13612;BME280;6877;51.436;6.774;2023-03-04T09:24:05;102080.94;;;6.16;89.03
13612;BME280;6877;51.436;6.774;2023-03-04T09:26:37;102070.19;;;6.42;88.00
13612;BME280;6877;51.436;6.774;2023-03-04T09:29:03;102073.03;;;6.54;84.81
13612;BME280;6877;51.436;6.774;2023-03-04T09:31:30;102075.13;;;6.73;85.11
13612;BME280;6877;51.436;6.774;2023-03-04T09:33:58;102070.88;;;6.79;82.54
13612;BME280;6877;51.436;6.774;2023-03-04T09:36:29;102068.22;;;6.76;83.11
13612;BME280;6877;51.436;6.774;2023-03-04T09:38:59;102077.66;;;6.70;82.53
13612;BME280;6877;51.436;6.774;2023-03-04T09:44:36;102069.91;;;6.73;83.36
13612;BME280;6877;51.436;6.774;2023-03-04T09:47:16;102070.88;;;6.79;82.37
13612;BME280;6877;51.436;6.774;2023-03-04T09:50:06;102067.72;;;6.96;81.90
13612;BME280;6877;51.436;6.774;2023-03-04T10:00:38;102068.50;;;6.92;79.58
13612;BME280;6877;51.436;6.774;2023-03-04T10:03:19;102059.94;;;6.98;79.18
13612;BME280;6877;51.436;6.774;2023-03-04T10:05:59;102059.81;;;6.90;79.49
13612;BME280;6877;51.436;6.774;2023-03-04T10:16:40;102046.81;;;7.45;77.40
13612;BME280;6877;51.436;6.774;2023-03-04T10:21:45;102042.72;;;7.61;75.69
13612;BME280;6877;51.436;6.774;2023-03-04T10:24:18;102038.28;;;7.55;76.28
13612;BME280;6877;51.436;6.774;2023-03-04T10:26:51;102039.97;;;7.53;76.09
13612;BME280;6877;51.436;6.774;2023-03-04T10:29:24;102040.88;;;7.54;76.01
13612;BME280;6877;51.436;6.774;2023-03-04T10:31:50;102036.34;;;7.42;76.57
13612;BME280;6877;51.436;6.774;2023-03-04T10:34:17;102044.84;;;7.29;77.55
13612;BME280;6877;51.436;6.774;2023-03-04T10:36:59;102035.44;;;7.40;77.05
13612;BME280;6877;51.436;6.774;2023-03-04T10:39:36;102037.88;;;7.90;75.76
13612;BME280;6877;51.436;6.774;2023-03-04T10:44:52;102040.75;;;8.86;71.55
13612;BME280;6877;51.436;6.774;2023-03-04T10:47:23;102037.38;;;8.99;70.78
13612;BME280;6877;51.436;6.774;2023-03-04T10:49:55;102046.81;;;8.85;70.90
13612;BME280;6877;51.436;6.774;2023-03-04T10:52:33;102042.66;;;8.25;73.67
13612;BME280;6877;51.436;6.774;2023-03-04T10:55:05;102043.00;;;7.82;76.41
13612;BME280;6877;51.436;6.774;2023-03-04T10:57:42;102032.19;;;7.56;77.58
13612;BME280;6877;51.436;6.774;2023-03-04T11:02:44;102028.69;;;7.51;77.73
13612;BME280;6877;51.436;6.774;2023-03-04T11:05:25;102032.44;;;7.72;76.88
13612;BME280;6877;51.436;6.774;2023-03-04T11:07:59;102028.41;;;7.95;76.01
13612;BME280;6877;51.436;6.774;2023-03-04T11:10:40;102017.34;;;8.15;73.72
13612;BME280;6877;51.436;6.774;2023-03-04T11:16:00;102020.03;;;8.21;72.73
13612;BME280;6877;51.436;6.774;2023-03-04T11:18:43;102014.63;;;8.07;73.59
13612;BME280;6877;51.436;6.774;2023-03-04T11:21:19;102009.53;;;8.16;73.11
13612;BME280;6877;51.436;6.774;2023-03-04T11:23:51;102007.94;;;8.29;72.37
13612;BME280;6877;51.436;6.774;2023-03-04T11:31:52;101999.59;;;8.57;71.28
13612;BME280;6877;51.436;6.774;2023-03-04T11:35:13;102000.41;;;8.52;71.04
13612;BME280;6877;51.436;6.774;2023-03-04T11:39:58;101994.63;;;8.06;72.64
13612;BME280;6877;51.436;6.774;2023-03-04T11:42:48;101990.84;;;7.79;73.68
13612;BME280;6877;51.436;6.774;2023-03-04T11:45:42;101986.22;;;7.58;74.32
13612;BME280;6877;51.436;6.774;2023-03-04T11:51:17;101985.91;;;7.37;75.81
13612;BME280;6877;51.436;6.774;2023-03-04T11:56:34;101981.75;;;7.50;75.69
13612;BME280;6877;51.436;6.774;2023-03-04T12:02:09;101975.94;;;7.68;78.96
13612;BME280;6877;51.436;6.774;2023-03-04T12:09:43;101967.03;;;8.25;77.00
13612;BME280;6877;51.436;6.774;2023-03-04T12:15:05;101954.56;;;8.85;75.33
13612;BME280;6877;51.436;6.774;2023-03-04T12:20:46;101945.13;;;8.99;72.73
13612;BME280;6877;51.436;6.774;2023-03-04T12:26:02;101944.66;;;8.42;75.80
13612;BME280;6877;51.436;6.774;2023-03-04T12:28:46;101943.47;;;8.16;78.59
13612;BME280;6877;51.436;6.774;2023-03-04T12:37:01;101932.00;;;8.00;82.20
13612;BME280;6877;51.436;6.774;2023-03-04T12:46:43;101925.81;;;7.22;87.60
13612;BME280;6877;51.436;6.774;2023-03-04T12:49:14;101929.72;;;6.92;91.61
13612;BME280;6877;51.436;6.774;2023-03-04T12:51:52;101918.91;;;6.67;94.28
13612;BME280;6877;51.436;6.774;2023-03-04T12:57:16;101928.97;;;6.46;96.32
13612;BME280;6877;51.436;6.774;2023-03-04T13:02:54;101927.03;;;6.34;98.28
13612;BME280;6877;51.436;6.774;2023-03-04T13:10:45;101910.63;;;6.38;98.63
13612;BME280;6877;51.436;6.774;2023-03-04T13:13:39;101914.53;;;6.63;98.10
13612;BME280;6877;51.436;6.774;2023-03-04T13:18:43;101916.13;;;7.10;95.72
13612;BME280;6877;51.436;6.774;2023-03-04T13:21:21;101911.94;;;7.23;95.10
13612;BME280;6877;51.436;6.774;2023-03-04T13:23:53;101907.72;;;7.31;95.11
13612;BME280;6877;51.436;6.774;2023-03-04T13:26:30;101902.44;;;7.26;93.45
13612;BME280;6877;51.436;6.774;2023-03-04T13:32:09;101895.38;;;7.17;92.72
13612;BME280;6877;51.436;6.774;2023-03-04T13:34:54;101889.25;;;7.14;93.05
13612;BME280;6877;51.436;6.774;2023-03-04T13:42:46;101886.84;;;7.28;92.85
13612;BME280;6877;51.436;6.774;2023-03-04T13:45:29;101872.78;;;7.13;92.61
13612;BME280;6877;51.436;6.774;2023-03-04T13:48:02;101875.59;;;7.29;93.78
13612;BME280;6877;51.436;6.774;2023-03-04T13:50:53;101870.63;;;7.49;92.08
13612;BME280;6877;51.436;6.774;2023-03-04T13:53:28;101862.13;;;7.65;91.06
13612;BME280;6877;51.436;6.774;2023-03-04T13:56:11;101859.59;;;7.70;89.42
13612;BME280;6877;51.436;6.774;2023-03-04T13:58:40;101862.25;;;7.77;89.66
13612;BME280;6877;51.436;6.774;2023-03-04T14:01:22;101856.22;;;7.81;89.24
13612;BME280;6877;51.436;6.774;2023-03-04T14:03:55;101862.25;;;7.76;86.62
13612;BME280;6877;51.436;6.774;2023-03-04T14:06:25;101868.34;;;7.76;88.21
13612;BME280;6877;51.436;6.774;2023-03-04T14:08:56;101858.81;;;7.80;88.13
13612;BME280;6877;51.436;6.774;2023-03-04T14:13:50;101857.97;;;7.84;86.36
13612;BME280;6877;51.436;6.774;2023-03-04T14:16:25;101852.81;;;7.87;87.49
13612;BME280;6877;51.436;6.774;2023-03-04T14:19:01;101848.56;;;7.97;86.30
13612;BME280;6877;51.436;6.774;2023-03-04T14:21:29;101853.94;;;8.13;86.58
13612;BME280;6877;51.436;6.774;2023-03-04T14:24:16;101843.53;;;8.18;85.70
13612;BME280;6877;51.436;6.774;2023-03-04T14:26:43;101843.53;;;8.17;85.57
13612;BME280;6877;51.436;6.774;2023-03-04T14:29:27;101844.47;;;8.25;85.05
13612;BME280;6877;51.436;6.774;2023-03-04T14:32:03;101840.94;;;8.17;84.68
13612;BME280;6877;51.436;6.774;2023-03-04T14:34:32;101840.06;;;8.19;84.30
13612;BME280;6877;51.436;6.774;2023-03-04T14:37:03;101835.56;;;8.03;84.27
13612;BME280;6877;51.436;6.774;2023-03-04T14:39:42;101831.19;;;7.96;85.17
13612;BME280;6877;51.436;6.774;2023-03-04T14:42:11;101832.81;;;7.87;85.08
13612;BME280;6877;51.436;6.774;2023-03-04T14:44:46;101830.13;;;7.77;85.25
13612;BME280;6877;51.436;6.774;2023-03-04T14:47:21;101823.84;;;7.59;85.49
13612;BME280;6877;51.436;6.774;2023-03-04T14:49:49;101817.69;;;7.51;85.88
13612;BME280;6877;51.436;6.774;2023-03-04T14:55:07;101818.31;;;7.30;86.90
13612;BME280;6877;51.436;6.774;2023-03-04T14:57:47;101813.84;;;7.22;87.09
13612;BME280;6877;51.436;6.774;2023-03-04T15:00:29;101810.25;;;7.12;87.68
13612;BME280;6877;51.436;6.774;2023-03-04T15:03:24;101811.84;;;6.99;88.66
13612;BME280;6877;51.436;6.774;2023-03-04T15:05:51;101814.44;;;6.97;89.39
13612;BME280;6877;51.436;6.774;2023-03-04T15:08:32;101810.13;;;7.01;89.47
13612;BME280;6877;51.436;6.774;2023-03-04T15:11:06;101813.53;;;6.94;89.88
13612;BME280;6877;51.436;6.774;2023-03-04T15:13:56;101809.06;;;6.85;90.87
13612;BME280;6877;51.436;6.774;2023-03-04T15:16:26;101815.00;;;6.77;91.37